Relevés horaires Matro (Suisse)


Relevés horaires à Matro - Jeudi 18 Déc. 2014
Heure UTC1 Température [°C] Vent [km/h] Hum. [%] Pres.4 [hPa] Visi. [Km] Nébu. [octa] Préc.5 [mm] Cond.
2m. Res. Ros. Dir.2 Vit. Moy. Raf.3
23:00 4.5 -0.2 -7.4 ONO 25.9 27.8 37.0 42 850(0.7/3h) -- -- -- --
22:00 4.3 -1 -4.1 NNO 31.5 31.5 38.9 54 850(1.1/3h) -- -- -- --
21:00 4.7 -0.6 -1.8 NNO 33.3 40.7 57.4 63 850(1.4/3h) -- -- -- --
20:00 4.2 -1.4 -- NO 35.2 35.2 50.0 -- 850(1.4/3h) -- -- -- --
19:00 3.5 -1.7 1.3 NO 27.8 31.5 42.6 85 850(1.2/3h) -- -- -- --
18:00 4.2 -1 1.0 ONO 29.6 29.6 40.7 80 850(1.1/3h) -- -- -- --
17:00 3.5 -0.1 1.1 NO 14.8 24.1 37.0 84 850(1.0/3h) -- -- -- --
16:00 3.2 -1.5 1.0 NO 22.2 24.1 33.3 85 850(0.8/3h) -- -- -- --
15:00 2.6 -1.5 0.8 ONO 16.7 20.4 27.8 88 850(0.2/3h) -- -- -- --
14:00 0.8 -2.2 0.6 ONO 9.3 20.4 24.1 99 850(0.0/3h) -- -- -- --
13:00 1.0 -1.4 0.3 O 7.4 7.4 13.0 95 850(0.1/3h) -- -- -- --
12:00 1.3 -1 -0.6 NO 7.4 29.6 37.0 87 850(0.9/3h) -- -- -- --
11:00 2.8 -0.9 -2.0 ONO 14.8 14.8 18.5 71 850(1.5/3h) -- -- -- --
10:00 3.3 0.8 -2.7 O 9.3 14.8 20.4 65 850(2.1/3h) -- -- -- --
09:00 2.8 -0.6 -3.1 O 13.0 29.6 37.0 65 850(2.2/3h) -- -- -- --
08:00 2.2 -2.3 -3.6 ONO 18.5 20.4 29.6 65 850(1.7/3h) -- -- -- --
07:00 1.7 -1.9 -4.3 ONO 13.0 29.6 37.0 64 850(1.7/3h) -- -- -- --
06:00 1.8 -3.7 -4.9 NO 25.9 44.4 63.0 61 850(1.3/3h) -- -- -- --
05:00 1.7 -2.6 -5.3 ONO 16.7 27.8 40.7 60 850(1.4/3h) -- -- -- --
04:00 1.8 -3.7 -5.2 NO 25.9 25.9 50.0 60 850(1.0/3h) -- -- -- --
03:00 2.0 -4 -5.4 NO 31.5 44.4 63.0 58 850(1.2/3h) -- -- -- --
02:00 1.4 -5.9 -4.3 NNO 44.4 44.4 63.0 66 850(0.8/3h) -- -- -- --
01:00 1.2 -6 -4.0 NO 42.6 42.6 59.3 68 850(0.8/3h) -- -- -- --
00:00 0.6 -6.9 -3.9 NNO 44.4 44.4 59.3 72 850(0.7/3h) -- -- -- --

1 Coordinated Universal Time. Actuellement il est 11:00 locale et 09:00 UTC.

2 Le vent souffle depuis la direction indiquée vers la direction oposée.

3 Les rafales max. sont disponible 40 min après l'heure du relevé.

4 Pour les stations d'altitude (plus de 600m) le géopotentiel du niveau le plus proche de la pression obligatoire est indiqué.

5 Les stations disposant d'un diffuseur peuvent indiquer "trace". Cela signifie que des précipitations ont touchés le sol mais que la quantité est inférieure à 0.1 mm.

Copyright

Les données affichées sur cette page sont la propriété exclusive de Météo Suisse.

Récapitulatif de la journée
Température [°C] Vent [km/h] Ensoleillement4 [h] Precipitations totale5 [mm] Pression [Hpa]
Min1 Max.2 Moy.3 Max. Min Max.
-5.0 4.4 29.4 63.0 1 h 12 min 0 850.0 850.0

1 Température minimale relevée entre 18:00 UTC la veille et 18:00 UTC le jour donné.

2 Température maximale relevée entre 06:00 UTC le jour donné et 06:00 UTC le lendemain.

3 Vent moyen de la journée basé sur les relevés horaires.

4 Ensoleillement en heures relevé entre 06:00 UTC la veille et 06:00 UTC le jour donné.

5 Précipitations totales tombées entre 06:00 UTC la jour donné et 06:00 UTC le lendemain.

Graphiques horaires